Time;durP1;ratioP1;P1;durP2;ratioP2;P2;SDS_P1;SDS_P2;PMS_P1;PMS_P2;Temp;Humidity;BMP_temperature;BMP_pressure;BME280_temperature;BME280_humidity;BME280_pressure;Samples;Min_cycle;Max_cycle;Signal;HPM_P1;HPM_P2
2022/04/19 00:00:15;;;;;;;11.17;5.60;;;;;;;5.17;53.42;98403.31;2173116;82;21368;-84
2022/04/19 00:03:22;;;;;;;9.30;5.13;;;;;;;5.12;53.57;98402.77;2145527;82;21016;-83
2022/04/19 00:06:22;;;;;;;8.03;5.23;;;;;;;5.10;53.86;98399.69;2143612;82;20988;-83
2022/04/19 00:09:25;;;;;;;8.20;4.77;;;;;;;5.07;54.20;98399.19;2143757;82;20924;-83
2022/04/19 00:12:25;;;;;;;7.10;4.40;;;;;;;5.08;54.59;98392.30;2173407;82;20932;-84
2022/04/19 00:15:28;;;;;;;9.03;4.33;;;;;;;5.04;54.78;98394.36;2173603;82;20952;-83
2022/04/19 00:18:33;;;;;;;10.07;4.07;;;;;;;4.96;55.41;98388.98;2174007;82;20928;-84
2022/04/19 00:21:33;;;;;;;7.28;4.70;;;;;;;4.92;55.89;98394.03;2173712;82;20972;-84
2022/04/19 00:24:34;;;;;;;6.90;4.30;;;;;;;4.83;56.40;98390.78;2173414;82;20963;-84
2022/04/19 00:27:34;;;;;;;8.67;4.43;;;;;;;4.80;56.91;98395.87;2173952;82;21311;-84
2022/04/19 00:30:37;;;;;;;7.03;4.13;;;;;;;4.72;57.27;98393.49;2144273;82;20900;-84
2022/04/19 00:33:44;;;;;;;8.13;4.43;;;;;;;4.62;58.32;98387.61;2173643;82;20945;-84
2022/04/19 00:36:41;;;;;;;7.03;4.53;;;;;;;4.58;58.17;98389.65;2167044;82;21277;-83
2022/04/19 00:39:46;;;;;;;10.13;4.83;;;;;;;4.57;58.17;98386.60;2172897;82;20921;-82
2022/04/19 00:42:43;;;;;;;11.20;4.70;;;;;;;4.54;58.30;98390.39;2141354;82;20924;-83
2022/04/19 00:45:44;;;;;;;10.73;5.07;;;;;;;4.53;58.61;98387.35;2173167;82;20917;-82
2022/04/19 00:48:44;;;;;;;7.57;4.40;;;;;;;4.50;59.10;98389.84;2202126;80;20920;-83
2022/04/19 00:51:45;;;;;;;10.50;4.30;;;;;;;4.49;59.45;98394.14;2222148;80;20967;-82
2022/04/19 00:54:46;;;;;;;8.17;4.47;;;;;;;4.49;59.51;98385.09;2222620;80;20971;-83
2022/04/19 00:57:46;;;;;;;5.97;4.03;;;;;;;4.54;59.64;98392.98;2222401;80;20901;-82
2022/04/19 01:00:46;;;;;;;9.77;4.63;;;;;;;4.55;60.28;98387.85;2222584;80;20948;-82
2022/04/19 01:03:48;;;;;;;10.90;4.83;;;;;;;4.60;60.17;98390.56;2194639;80;20928;-82
2022/04/19 01:06:49;;;;;;;7.30;4.67;;;;;;;4.63;60.70;98388.06;2222968;80;20928;-84
2022/04/19 01:09:49;;;;;;;5.37;4.03;;;;;;;4.62;60.98;98386.31;2222581;80;20960;-82
2022/04/19 01:16:09;;;;;;;5.77;4.17;;;;;;;4.62;61.49;98382.02;2222666;80;20967;-83
2022/04/19 01:19:09;;;;;;;6.73;3.93;;;;;;;4.65;61.98;98382.52;2222437;80;20909;-82
2022/04/19 01:22:12;;;;;;;8.97;3.73;;;;;;;4.67;61.93;98378.27;2222407;80;20964;-82
2022/04/19 01:25:10;;;;;;;6.77;4.40;;;;;;;4.67;62.37;98374.39;2222767;80;20916;-82
2022/04/19 01:28:13;;;;;;;6.37;4.03;;;;;;;4.60;62.76;98363.01;2223228;80;20900;-83
2022/04/19 01:31:16;;;;;;;5.97;4.03;;;;;;;4.59;62.99;98367.72;2197133;80;20931;-83
2022/04/19 01:34:15;;;;;;;5.27;3.87;;;;;;;4.56;63.45;98365.05;2197422;80;20893;-83
2022/04/19 01:37:17;;;;;;;7.30;3.90;;;;;;;4.53;63.83;98366.67;2222565;80;20920;-83
2022/04/19 01:40:20;;;;;;;5.27;3.80;;;;;;;4.54;64.16;98364.13;2222247;80;20935;-82
2022/04/19 01:43:22;;;;;;;3.93;3.10;;;;;;;4.51;64.66;98364.46;2223333;80;20892;-83
2022/04/19 01:46:24;;;;;;;41.70;5.25;;;;;;;4.48;64.75;98370.00;2197040;80;21339;-81
2022/04/19 01:49:27;;;;;;;4.23;3.40;;;;;;;4.51;64.61;98374.38;2222165;80;20975;-84
2022/04/19 01:52:35;;;;;;;4.90;3.67;;;;;;;4.58;65.00;98368.97;2196422;80;21008;-85
2022/04/19 01:55:35;;;;;;;5.10;3.93;;;;;;;4.53;65.27;98371.84;2222793;80;20971;-83
2022/04/19 01:58:35;;;;;;;5.73;4.77;;;;;;;4.52;65.69;98362.34;2222570;80;20905;-82
2022/04/19 02:01:35;;;;;;;3.50;3.20;;;;;;;4.53;66.02;98362.37;2223086;80;20946;-84
2022/04/19 02:04:38;;;;;;;4.57;3.70;;;;;;;4.54;67.06;98355.08;2195443;80;20932;-82
2022/04/19 02:07:38;;;;;;;4.97;3.50;;;;;;;4.45;66.92;98358.29;2222970;80;20983;-81
2022/04/19 02:10:39;;;;;;;6.83;4.50;;;;;;;4.38;67.36;98351.20;2223273;80;20992;-84
2022/04/19 02:13:41;;;;;;;7.83;3.90;;;;;;;4.32;68.01;98349.70;2194706;80;21268;-84
2022/04/19 02:16:41;;;;;;;6.27;3.90;;;;;;;4.28;68.04;98349.16;2222991;80;20983;-83
2022/04/19 02:19:42;;;;;;;5.77;3.53;;;;;;;4.27;68.23;98348.69;2222213;80;20960;-82
2022/04/19 02:22:42;;;;;;;3.90;3.47;;;;;;;4.29;68.81;98348.73;2222310;80;21015;-84
2022/04/19 02:25:43;;;;;;;9.00;3.70;;;;;;;4.26;68.76;98344.77;2222700;80;20900;-84
2022/04/19 02:28:45;;;;;;;5.17;3.63;;;;;;;4.21;69.19;98347.23;2222859;80;20952;-82
2022/04/19 02:31:46;;;;;;;3.80;3.40;;;;;;;4.17;69.44;98347.97;2223384;80;20948;-84
2022/04/19 02:34:52;;;;;;;3.53;3.23;;;;;;;4.15;70.88;98349.63;2222859;80;20967;-81
2022/04/19 02:37:55;;;;;;;4.27;3.20;;;;;;;4.08;69.95;98344.70;2222922;80;20903;-82
2022/04/19 02:40:55;;;;;;;4.97;3.80;;;;;;;4.09;70.42;98350.75;2223086;80;20937;-81
2022/04/19 02:43:59;;;;;;;4.00;3.03;;;;;;;4.11;70.64;98348.67;2223411;80;21384;-82
2022/04/19 02:46:56;;;;;;;4.83;3.60;;;;;;;4.16;70.93;98338.05;2222611;80;20884;-77
2022/04/19 02:49:56;;;;;;;3.33;3.03;;;;;;;4.16;70.90;98348.80;2221133;80;20963;-83
2022/04/19 02:52:57;;;;;;;4.53;3.23;;;;;;;4.16;71.17;98352.67;2221607;80;21062;-79
2022/04/19 02:55:58;;;;;;;3.40;2.90;;;;;;;4.15;71.29;98347.92;2221567;80;20932;-82
2022/04/19 02:58:59;;;;;;;4.10;3.27;;;;;;;4.18;71.64;98343.27;2221987;80;20956;-82
2022/04/19 03:01:58;;;;;;;4.10;2.90;;;;;;;4.16;71.93;98349.67;2221743;80;20950;-82
2022/04/19 03:05:01;;;;;;;4.67;2.83;;;;;;;4.11;71.79;98347.37;2191298;80;20935;-82
2022/04/19 03:08:01;;;;;;;6.03;2.73;;;;;;;4.11;71.83;98349.95;2222328;80;21350;-83
2022/04/19 03:11:01;;;;;;;4.03;3.20;;;;;;;4.00;72.20;98342.73;2222131;80;20865;-81
2022/04/19 03:14:02;;;;;;;3.20;2.90;;;;;;;4.00;72.20;98342.73;2222343;80;20948;-82
2022/04/19 03:17:02;;;;;;;4.30;3.23;;;;;;;3.92;72.35;98353.25;2222173;80;21445;-83
2022/04/19 03:20:08;;;;;;;3.47;2.60;;;;;;;3.80;72.28;98353.75;2222175;80;20912;-82
2022/04/19 03:29:43;;;;;;;4.13;2.70;;;;;;;3.64;72.61;98349.83;2222075;80;20893;-81
2022/04/19 03:32:44;;;;;;;2.93;2.70;;;;;;;3.64;72.77;98352.41;2222007;80;20904;-82
2022/04/19 03:35:44;;;;;;;3.07;2.67;;;;;;;3.64;72.82;98352.82;2221428;80;20952;-83
2022/04/19 03:38:44;;;;;;;3.30;2.90;;;;;;;3.62;72.95;98348.91;2221302;80;20993;-81
2022/04/19 03:41:45;;;;;;;3.13;2.83;;;;;;;3.62;73.18;98354.48;2221911;80;20984;-82
2022/04/19 03:44:45;;;;;;;4.70;3.07;;;;;;;3.62;73.37;98356.64;2221510;80;20896;-83
2022/04/19 03:47:46;;;;;;;4.83;3.27;;;;;;;3.63;72.97;98353.65;2221435;80;20967;-83
2022/04/19 03:50:46;;;;;;;2.97;2.73;;;;;;;3.63;73.23;98353.23;2221313;80;21023;-81
2022/04/19 03:53:46;;;;;;;3.40;3.03;;;;;;;3.61;73.05;98357.47;2221471;80;20881;-82
2022/04/19 03:56:47;;;;;;;4.00;3.30;;;;;;;3.58;73.18;98357.80;2221442;80;20948;-83
2022/04/19 03:59:47;;;;;;;4.33;3.20;;;;;;;3.49;73.01;98357.97;2221877;80;20964;-82
2022/04/19 04:02:47;;;;;;;3.87;3.10;;;;;;;3.41;73.00;98355.52;2221917;80;20924;-82
2022/04/19 04:05:49;;;;;;;4.33;3.30;;;;;;;3.39;73.07;98357.59;2221672;80;20980;-81
2022/04/19 04:08:48;;;;;;;4.17;3.17;;;;;;;3.39;73.54;98360.17;2221712;80;20920;-82
2022/04/19 04:11:49;;;;;;;6.93;4.73;;;;;;;3.42;73.57;98358.98;2221686;80;20980;-82
2022/04/19 04:14:57;;;;;;;4.57;3.10;;;;;;;3.42;73.76;98357.69;2221826;80;21006;-81
2022/04/19 04:17:57;;;;;;;5.37;3.00;;;;;;;3.47;73.84;98362.20;2204231;80;20928;-82
2022/04/19 04:20:58;;;;;;;5.13;3.93;;;;;;;3.49;73.79;98355.39;2221858;80;21311;-82
2022/04/19 04:23:58;;;;;;;4.00;3.27;;;;;;;3.56;74.20;98353.88;2222120;80;20964;-85
2022/04/19 04:26:58;;;;;;;3.63;2.90;;;;;;;3.65;74.04;98354.16;2221698;80;20924;-83
2022/04/19 04:29:59;;;;;;;3.40;3.07;;;;;;;3.74;74.29;98353.16;2221730;80;20917;-82
2022/04/19 04:32:59;;;;;;;3.93;3.20;;;;;;;3.86;74.12;98351.77;2221840;80;21134;-84
2022/04/19 04:36:00;;;;;;;5.77;3.43;;;;;;;4.00;73.98;98345.31;2222298;80;20931;-83
2022/04/19 04:39:00;;;;;;;4.67;3.23;;;;;;;4.16;74.00;98354.84;2221435;80;20909;-83
2022/04/19 04:42:02;;;;;;;3.73;3.40;;;;;;;4.33;74.03;98348.87;2221973;80;20884;-82
2022/04/19 04:45:01;;;;;;;3.60;3.30;;;;;;;4.51;73.92;98347.25;2221425;80;20911;-82
2022/04/19 04:51:20;;;;;;;4.07;3.70;;;;;;;4.71;73.38;98351.25;2220501;80;21693;-81
2022/04/19 04:54:20;;;;;;;4.17;3.77;;;;;;;4.85;73.11;98352.91;2221091;80;20951;-83
2022/04/19 04:57:21;;;;;;;6.27;4.30;;;;;;;4.98;73.42;98351.09;2220925;80;20920;-84
2022/04/19 05:00:21;;;;;;;4.03;3.63;;;;;;;5.08;73.33;98355.67;2222412;80;20933;-82
2022/04/19 05:03:24;;;;;;;6.50;5.87;;;;;;;5.17;72.71;98355.45;2215746;80;20877;-81
2022/04/19 05:06:24;;;;;;;7.80;4.47;;;;;;;5.25;72.65;98357.42;2151072;82;20983;-82
2022/04/19 05:09:24;;;;;;;4.43;4.03;;;;;;;5.41;72.84;98348.31;2175067;82;20931;-81
2022/04/19 05:12:25;;;;;;;5.00;4.43;;;;;;;5.57;72.86;98350.43;2174553;82;20953;-82
2022/04/19 05:15:26;;;;;;;5.83;4.43;;;;;;;5.63;72.24;98348.41;2174703;82;21303;-83
2022/04/19 05:18:35;;;;;;;6.87;5.20;;;;;;;5.56;72.11;98348.68;2174802;82;20929;-85
2022/04/19 05:21:40;;;;;;;6.30;5.77;;;;;;;5.46;71.61;98353.19;2146142;82;20975;-83
2022/04/19 05:24:41;;;;;;;8.70;5.60;;;;;;;5.28;71.90;98347.56;2174893;82;20948;-83
2022/04/19 05:27:41;;;;;;;6.13;5.50;;;;;;;5.21;72.36;98356.02;2174823;82;20944;-82
2022/04/19 05:30:41;;;;;;;7.73;6.67;;;;;;;5.19;73.35;98360.23;2175066;82;20931;-82
2022/04/19 05:33:42;;;;;;;11.47;6.83;;;;;;;5.15;73.03;98353.23;2175137;82;20921;-81
2022/04/19 05:36:42;;;;;;;8.00;7.20;;;;;;;5.12;73.02;98361.80;2175627;82;21191;-83
2022/04/19 05:39:42;;;;;;;8.10;7.00;;;;;;;5.14;73.30;98357.54;2176595;82;20964;-85
2022/04/19 05:42:43;;;;;;;7.27;6.57;;;;;;;5.12;72.93;98360.09;2175497;82;21289;-82
2022/04/19 05:45:43;;;;;;;8.53;7.00;;;;;;;5.16;73.81;98362.33;2174405;82;20924;-82
2022/04/19 05:48:44;;;;;;;9.40;7.30;;;;;;;5.16;73.49;98366.22;2173992;82;20964;-82
2022/04/19 05:51:47;;;;;;;9.63;7.30;;;;;;;5.12;73.26;98363.97;2173704;82;21007;-84
2022/04/19 05:54:47;;;;;;;8.87;7.03;;;;;;;5.16;73.24;98360.16;2174883;82;20956;-83
2022/04/19 05:57:48;;;;;;;11.00;8.17;;;;;;;5.25;73.62;98366.89;2175539;82;20967;-85
2022/04/19 06:00:49;;;;;;;12.77;7.67;;;;;;;5.28;73.18;98365.26;2175863;82;21642;-82
2022/04/19 06:07:10;;;;;;;9.93;8.93;;;;;;;5.30;73.42;98370.47;2144990;82;20913;-83
2022/04/19 06:10:10;;;;;;;9.57;8.50;;;;;;;5.26;73.19;98371.23;2174510;82;21320;-83
2022/04/19 06:13:11;;;;;;;10.07;9.00;;;;;;;5.30;73.25;98370.47;2174448;82;20885;-81
2022/04/19 06:16:11;;;;;;;14.80;9.73;;;;;;;5.36;73.48;98368.91;2174548;82;20995;-83
2022/04/19 06:19:11;;;;;;;16.67;10.00;;;;;;;5.43;73.45;98365.63;2175109;82;20993;-82
2022/04/19 06:22:13;;;;;;;12.30;10.33;;;;;;;5.48;73.46;98364.45;2175671;82;21020;-87
2022/04/19 06:25:12;;;;;;;13.00;10.47;;;;;;;5.47;73.47;98370.47;2174893;82;20984;-83
2022/04/19 06:28:12;;;;;;;11.80;10.60;;;;;;;5.42;73.52;98372.06;2174989;82;20933;-82
2022/04/19 06:31:13;;;;;;;14.03;11.73;;;;;;;5.48;73.29;98372.22;2175149;82;20933;-85
2022/04/19 06:34:13;;;;;;;14.93;12.30;;;;;;;5.55;73.49;98366.34;2175504;82;21337;-82
2022/04/19 06:37:14;;;;;;;18.83;13.20;;;;;;;5.80;73.54;98370.80;2176342;82;20956;-82
2022/04/19 06:40:14;;;;;;;15.20;11.67;;;;;;;5.97;73.36;98372.09;2175345;82;20976;-82
2022/04/19 06:43:15;;;;;;;20.60;13.23;;;;;;;6.01;72.83;98372.20;2175797;82;20933;-84
2022/04/19 06:46:15;;;;;;;18.10;13.30;;;;;;;6.01;72.64;98373.49;2176442;82;20917;-84
2022/04/19 06:49:15;;;;;;;16.83;12.50;;;;;;;6.03;72.70;98378.70;2176755;81;21012;-81
2022/04/19 06:52:16;;;;;;;15.77;13.87;;;;;;;6.00;72.38;98384.70;2181622;82;21060;-84
2022/04/19 06:55:16;;;;;;;13.47;12.10;;;;;;;5.90;72.69;98389.22;2181957;82;20982;-81
2022/04/19 06:58:17;;;;;;;25.63;14.43;;;;;;;5.78;72.77;98393.20;2181941;82;20964;-84
2022/04/19 07:01:17;;;;;;;13.50;11.97;;;;;;;5.68;73.32;98402.05;2182075;82;20948;-84
2022/04/19 07:04:18;;;;;;;13.37;10.90;;;;;;;5.64;73.70;98401.94;2181946;82;20948;-85
2022/04/19 07:07:18;;;;;;;12.73;11.43;;;;;;;5.55;73.37;98407.77;2181532;82;20936;-82
2022/04/19 07:10:19;;;;;;;14.47;11.87;;;;;;;5.40;73.62;98412.57;2181168;82;20920;-81
2022/04/19 07:13:19;;;;;;;14.40;11.93;;;;;;;5.34;73.99;98415.87;2181584;81;20965;-81
2022/04/19 07:16:19;;;;;;;17.67;11.67;;;;;;;5.28;74.15;98413.55;2180893;82;21007;-82
2022/04/19 07:19:20;;;;;;;14.33;11.20;;;;;;;5.31;74.53;98423.98;2182277;81;21004;-82
2022/04/19 07:28:57;;;;;;;10.43;9.17;;;;;;;5.34;74.19;98424.06;2181397;82;20920;-83
2022/04/19 07:31:58;;;;;;;9.50;8.57;;;;;;;5.46;73.91;98424.38;2182312;81;20913;-83
2022/04/19 07:34:58;;;;;;;11.23;9.97;;;;;;;5.58;73.70;98430.27;2181787;81;20952;-83
2022/04/19 07:37:59;;;;;;;13.17;10.83;;;;;;;5.67;73.79;98428.78;2180706;81;21352;-81
2022/04/19 07:40:59;;;;;;;11.23;10.10;;;;;;;5.75;73.77;98435.45;2181495;81;20924;-82
2022/04/19 07:44:01;;;;;;;10.37;9.07;;;;;;;5.79;72.97;98435.97;2181268;81;20964;-82
2022/04/19 07:47:00;;;;;;;9.83;8.87;;;;;;;5.86;73.19;98441.76;2181439;82;21322;-82
2022/04/19 07:50:01;;;;;;;11.03;9.17;;;;;;;6.01;72.83;98439.98;2172462;81;20980;-82
2022/04/19 07:53:01;;;;;;;10.23;8.50;;;;;;;6.11;72.85;98438.09;2163914;82;20957;-84
2022/04/19 07:56:02;;;;;;;10.73;8.73;;;;;;;6.23;72.63;98436.20;2164757;82;21344;-82
2022/04/19 07:59:03;;;;;;;9.23;8.17;;;;;;;6.35;71.85;98442.52;2164873;82;20917;-83
2022/04/19 08:02:02;;;;;;;9.73;7.60;;;;;;;6.50;71.57;98444.57;2165726;82;21317;-83
2022/04/19 08:05:02;;;;;;;10.17;8.33;;;;;;;6.62;71.19;98441.36;2164770;82;21114;-82
2022/04/19 08:08:03;;;;;;;11.07;8.63;;;;;;;6.87;70.46;98446.63;2165114;82;20957;-83
2022/04/19 08:11:03;;;;;;;8.47;7.57;;;;;;;7.13;70.63;98441.98;2164555;82;21311;-82
2022/04/19 08:14:04;;;;;;;10.33;7.13;;;;;;;7.26;70.12;98439.64;2163946;82;20969;-82
2022/04/19 08:17:07;;;;;;;9.07;8.10;;;;;;;7.30;69.68;98445.77;2164114;82;20983;-83
2022/04/19 08:20:08;;;;;;;7.43;6.63;;;;;;;7.57;68.43;98447.97;2164317;82;20924;-82
2022/04/19 08:23:08;;;;;;;7.53;6.67;;;;;;;7.57;68.43;98447.97;2164064;82;21415;-84
2022/04/19 08:26:08;;;;;;;8.23;6.47;;;;;;;7.64;68.88;98445.93;2164289;82;20945;-84
2022/04/19 08:29:08;;;;;;;8.13;6.13;;;;;;;7.83;68.89;98450.62;2164435;82;21597;-81
2022/04/19 08:32:09;;;;;;;7.50;5.87;;;;;;;7.90;67.69;98450.29;2163893;82;20918;-83
2022/04/19 08:35:09;;;;;;;6.50;5.90;;;;;;;7.93;67.56;98447.73;2164328;82;20957;-84
2022/04/19 08:38:10;;;;;;;6.17;5.57;;;;;;;8.08;67.33;98449.70;2163378;82;21359;-82
2022/04/19 08:41:10;;;;;;;7.27;5.80;;;;;;;8.23;66.57;98451.23;2163769;82;20948;-83
2022/04/19 08:44:11;;;;;;;8.53;5.27;;;;;;;8.36;65.92;98453.61;2164416;82;20960;-83
2022/04/19 08:47:11;;;;;;;6.03;5.43;;;;;;;8.37;65.34;98449.73;2164299;82;20990;-78
2022/04/19 08:50:12;;;;;;;6.20;5.57;;;;;;;8.40;65.71;98455.41;2163843;82;20941;-82
2022/04/19 08:59:49;;;;;;;6.47;4.90;;;;;;;8.42;64.88;98465.41;2164491;82;20985;-83
2022/04/19 09:02:50;;;;;;;5.20;4.70;;;;;;;8.50;64.25;98463.78;2164728;82;21308;-81
2022/04/19 09:05:53;;;;;;;5.23;4.73;;;;;;;8.59;64.19;98462.19;2164678;82;21000;-81
2022/04/19 09:08:53;;;;;;;5.57;5.00;;;;;;;8.59;64.03;98463.91;2164365;82;20921;-82
2022/04/19 09:11:53;;;;;;;5.30;4.80;;;;;;;8.43;63.19;98473.66;2164831;82;20921;-82
2022/04/19 09:14:55;;;;;;;5.47;4.97;;;;;;;8.28;63.84;98469.95;2164562;82;20979;-83
2022/04/19 09:17:54;;;;;;;4.93;4.40;;;;;;;8.15;64.12;98473.22;2164396;82;20936;-83
2022/04/19 09:20:55;;;;;;;4.83;4.40;;;;;;;8.09;65.53;98471.82;2164760;82;20982;-84
2022/04/19 09:23:55;;;;;;;5.67;5.07;;;;;;;7.98;64.01;98477.28;2164246;82;20980;-84
2022/04/19 09:27:00;;;;;;;10.10;5.10;;;;;;;7.82;64.52;98482.64;2164572;82;20936;-84
2022/04/19 09:29:58;;;;;;;6.47;5.63;;;;;;;7.72;64.75;98486.33;2142279;82;20972;-84
2022/04/19 09:32:58;;;;;;;8.67;6.37;;;;;;;7.60;64.88;98485.27;2164413;82;20910;-84
2022/04/19 09:35:59;;;;;;;26.93;11.23;;;;;;;7.51;65.02;98490.30;2164589;82;21036;-84
2022/04/19 09:38:59;;;;;;;13.23;8.20;;;;;;;7.45;64.91;98494.08;2164251;82;20917;-83
2022/04/19 09:42:01;;;;;;;11.97;7.23;;;;;;;7.40;65.03;98498.31;2142145;82;20925;-83
2022/04/19 09:45:02;;;;;;;11.50;8.00;;;;;;;7.35;64.21;98499.95;2164859;82;20920;-85
2022/04/19 09:48:02;;;;;;;13.07;7.97;;;;;;;7.32;64.94;98499.89;2164549;82;21335;-83
2022/04/19 09:51:03;;;;;;;9.57;7.83;;;;;;;7.32;64.71;98505.08;2174889;82;21019;-84
2022/04/19 09:54:04;;;;;;;10.47;6.73;;;;;;;7.35;64.38;98505.14;2180957;82;20990;-84
2022/04/19 09:57:04;;;;;;;9.77;6.87;;;;;;;7.43;65.04;98510.05;2181025;81;21022;-83
2022/04/19 10:00:05;;;;;;;7.13;5.80;;;;;;;7.46;65.31;98514.01;2180368;82;20924;-84
2022/04/19 10:09:24;;;;;;;6.30;5.60;;;;;;;8.48;63.32;98510.59;2180605;82;20897;-84
2022/04/19 10:12:25;;;;;;;7.57;5.30;;;;;;;8.52;62.33;98512.81;2180476;82;20972;-83
2022/04/19 10:15:25;;;;;;;11.50;5.27;;;;;;;8.57;62.26;98517.65;2180501;82;21371;-84
2022/04/19 10:18:26;;;;;;;5.87;5.30;;;;;;;8.68;60.18;98517.41;2180384;82;20956;-85
2022/04/19 10:21:26;;;;;;;5.70;4.93;;;;;;;8.80;60.43;98524.08;2181185;82;20980;-84
2022/04/19 10:24:29;;;;;;;5.23;4.67;;;;;;;8.73;58.53;98520.95;2181058;82;20987;-84
2022/04/19 10:27:30;;;;;;;5.83;4.87;;;;;;;8.73;58.83;98526.58;2180806;82;20920;-84
2022/04/19 10:30:32;;;;;;;5.53;4.80;;;;;;;10.00;57.93;98528.95;2181601;82;20917;-85
2022/04/19 10:33:30;;;;;;;12.47;4.77;;;;;;;9.92;56.23;98531.48;2182027;82;21000;-86
2022/04/19 10:36:31;;;;;;;6.80;4.90;;;;;;;9.90;57.80;98527.98;2182188;82;21023;-86
2022/04/19 10:39:32;;;;;;;7.07;5.10;;;;;;;10.13;57.16;98535.59;2181771;82;20908;-87
2022/04/19 10:42:36;;;;;;;6.10;4.77;;;;;;;10.24;55.82;98536.14;2182463;82;20881;-86
2022/04/19 10:45:35;;;;;;;4.85;4.30;;;;;;;10.25;55.79;98536.59;2181874;82;20963;-85
2022/04/19 10:48:36;;;;;;;7.87;5.03;;;;;;;10.31;55.48;98544.46;2181781;81;20988;-85
2022/04/19 10:51:36;;;;;;;5.40;4.90;;;;;;;10.24;54.62;98544.84;2176578;81;20979;-86
2022/04/19 10:54:37;;;;;;;5.20;4.80;;;;;;;10.03;53.08;98541.58;2175186;82;20988;-86
2022/04/19 11:00:59;;;;;;;7.60;4.97;;;;;;;10.32;54.29;98540.56;2174654;82;21299;-86
2022/04/19 11:03:58;;;;;;;7.03;5.23;;;;;;;10.55;54.11;98540.77;2144248;82;20980;-86
2022/04/19 11:06:59;;;;;;;5.23;4.73;;;;;;;10.78;51.83;98537.00;2175771;82;20955;-85
2022/04/19 11:09:59;;;;;;;6.12;5.03;;;;;;;11.06;51.06;98540.63;2176009;82;20928;-85
2022/04/19 11:12:59;;;;;;;7.25;4.97;;;;;;;11.21;52.04;98539.40;2175423;82;21310;-84
2022/04/19 11:16:00;;;;;;;8.20;4.87;;;;;;;11.40;50.01;98542.55;2175388;82;20997;-84
2022/04/19 11:19:00;;;;;;;9.05;4.70;;;;;;;11.64;49.95;98548.73;2174227;82;20935;-85
2022/04/19 11:22:01;;;;;;;4.80;3.85;;;;;;;11.60;47.40;98546.55;2174373;82;21300;-85
2022/04/19 11:25:07;;;;;;;117.70;10.50;;;;;;;11.49;47.97;98546.94;2175116;82;20976;-85
2022/04/19 11:28:18;;;;;;;6.70;4.53;;;;;;;11.75;48.97;98544.41;2174839;82;20920;-84
2022/04/19 11:31:12;;;;;;;7.62;4.90;;;;;;;12.18;48.18;98541.91;2141776;82;20968;-85
2022/04/19 11:34:13;;;;;;;5.67;5.08;;;;;;;12.41;47.54;98543.66;2174826;82;20949;-86
2022/04/19 11:37:13;;;;;;;5.00;4.58;;;;;;;12.31;45.42;98540.61;2174462;82;20955;-85
2022/04/19 11:46:51;;;;;;;10.32;6.70;;;;;;;12.57;45.21;98530.56;2174604;82;20936;-85
2022/04/19 11:49:52;;;;;;;41.13;7.87;;;;;;;12.71;44.32;98526.17;2174935;82;20984;-85
2022/04/19 11:52:52;;;;;;;10.50;6.53;;;;;;;12.57;43.16;98532.74;2174212;82;21011;-83
2022/04/19 11:55:52;;;;;;;13.40;7.80;;;;;;;12.41;43.47;98536.25;2174070;82;21506;-84
2022/04/19 11:58:53;;;;;;;12.40;7.10;;;;;;;12.36;43.63;98537.99;2174476;82;20944;-80
2022/04/19 12:01:53;;;;;;;10.13;6.35;;;;;;;12.28;43.70;98537.13;2174396;82;20965;-86
2022/04/19 12:04:54;;;;;;;15.38;9.10;;;;;;;12.18;43.31;98536.25;2173355;82;20975;-85
2022/04/19 12:08:00;;;;;;;15.40;8.03;;;;;;;12.10;43.89;98544.05;2174188;82;20969;-85
2022/04/19 12:11:00;;;;;;;9.55;6.92;;;;;;;12.13;43.44;98547.11;2174166;82;21189;-84
2022/04/19 12:14:03;;;;;;;25.00;7.90;;;;;;;12.09;43.56;98551.47;2174508;82;20935;-85
2022/04/19 12:17:01;;;;;;;13.50;6.92;;;;;;;12.53;43.49;98545.41;2174298;82;20951;-84
2022/04/19 12:20:02;;;;;;;19.05;8.20;;;;;;;12.35;43.15;98543.66;2173742;82;20970;-85
2022/04/19 12:23:02;;;;;;;8.48;6.28;;;;;;;12.19;42.13;98543.66;2173920;82;20964;-85
2022/04/19 12:26:02;;;;;;;8.60;5.40;;;;;;;12.13;42.49;98547.11;2173743;82;20917;-84
2022/04/19 12:29:03;;;;;;;9.30;5.60;;;;;;;12.18;43.46;98542.79;2173971;82;20981;-84
2022/04/19 12:32:03;;;;;;;5.50;5.00;;;;;;;12.27;42.13;98541.92;2173815;82;20964;-84
2022/04/19 12:35:04;;;;;;;8.28;5.40;;;;;;;12.08;41.24;98543.19;2174276;82;20956;-85
2022/04/19 12:38:04;;;;;;;7.30;4.97;;;;;;;11.89;41.65;98537.92;2173878;82;20920;-86
2022/04/19 12:41:04;;;;;;;6.80;4.53;;;;;;;11.76;42.15;98549.64;2174780;82;21217;-85
2022/04/19 12:44:05;;;;;;;5.80;4.97;;;;;;;11.61;41.97;98551.34;2174208;82;20893;-84
2022/04/19 12:47:05;;;;;;;9.88;5.00;;;;;;;11.45;42.73;98555.64;2175048;82;20969;-84
2022/04/19 12:50:06;;;;;;;5.20;4.40;;;;;;;11.28;43.30;98544.25;2174416;82;20928;-84
2022/04/19 12:53:06;;;;;;;4.30;3.87;;;;;;;11.16;43.14;98558.09;2164523;82;21751;-85
2022/04/19 12:56:06;;;;;;;15.77;5.23;;;;;;;10.93;43.47;98555.80;2164391;82;20993;-86
2022/04/19 12:59:25;;;;;;;6.17;4.70;;;;;;;10.84;43.96;98554.00;2165718;82;20936;-86
2022/04/19 13:02:25;;;;;;;5.17;4.67;;;;;;;10.84;43.80;98558.80;2165332;82;20960;-87
2022/04/19 13:12:16;;;;;;;5.53;4.45;;;;;;;10.69;42.94;98562.61;2165013;82;20925;-85
2022/04/19 13:15:06;;;;;;;5.97;5.30;;;;;;;10.52;43.54;98559.01;2164753;82;20956;-85
2022/04/19 13:18:06;;;;;;;23.00;7.47;;;;;;;10.44;43.53;98561.99;2165346;82;20932;-84
2022/04/19 13:21:07;;;;;;;14.63;6.70;;;;;;;10.48;43.72;98559.84;2165520;82;21348;-85
2022/04/19 13:24:07;;;;;;;7.87;7.07;;;;;;;10.43;43.06;98562.42;2165240;82;21028;-86
2022/04/19 13:27:07;;;;;;;16.53;10.67;;;;;;;10.40;42.59;98565.41;2164059;82;20941;-86
2022/04/19 13:30:10;;;;;;;6.97;5.70;;;;;;;10.32;43.27;98570.56;2143929;82;20926;-85
2022/04/19 13:33:10;;;;;;;9.07;5.83;;;;;;;10.36;43.45;98567.55;2164883;82;20921;-84
2022/04/19 13:36:11;;;;;;;12.03;8.03;;;;;;;10.47;44.16;98569.41;2165085;82;20989;-84
2022/04/19 13:39:11;;;;;;;59.13;8.63;;;;;;;10.68;42.79;98567.82;2165477;82;20897;-83
2022/04/19 13:42:18;;;;;;;8.20;6.20;;;;;;;10.71;43.13;98562.19;2138703;82;22370;-84
2022/04/19 13:45:18;;;;;;;8.60;7.10;;;;;;;10.80;42.49;98571.39;2144339;82;20919;-83
2022/04/19 13:48:18;;;;;;;27.33;9.17;;;;;;;10.92;43.61;98574.94;2166348;82;20934;-82
2022/04/19 13:51:20;;;;;;;16.50;7.73;;;;;;;11.06;43.63;98569.36;2165728;82;20981;-83
2022/04/19 13:54:20;;;;;;;9.83;7.65;;;;;;;11.13;42.79;98569.84;2165197;82;21411;-82
2022/04/19 13:57:20;;;;;;;11.05;8.70;;;;;;;11.35;44.03;98567.80;2166174;82;21150;-82
2022/04/19 14:00:20;;;;;;;7.80;6.90;;;;;;;11.69;42.09;98568.80;2166031;82;21020;-81
2022/04/19 14:03:20;;;;;;;13.03;10.85;;;;;;;11.71;41.95;98570.11;2165675;82;20917;-83
2022/04/19 14:06:22;;;;;;;8.40;7.47;;;;;;;11.62;42.58;98574.00;2165100;82;20897;-82
2022/04/19 14:09:21;;;;;;;7.00;5.87;;;;;;;11.42;40.97;98565.65;2166043;82;20902;-82
2022/04/19 14:12:22;;;;;;;9.25;5.62;;;;;;;11.27;41.36;98573.42;2166166;82;20921;-84
2022/04/19 14:15:22;;;;;;;7.20;5.65;;;;;;;11.22;41.70;98573.80;2165978;82;20949;-83
2022/04/19 14:18:23;;;;;;;9.60;5.60;;;;;;;11.23;42.10;98573.38;2164102;82;21376;-81
2022/04/19 14:21:23;;;;;;;6.72;6.00;;;;;;;11.42;41.08;98573.49;2164642;82;20944;-83
2022/04/19 14:24:24;;;;;;;8.05;6.05;;;;;;;11.56;42.09;98580.52;2164723;82;20982;-83
2022/04/19 14:27:24;;;;;;;7.33;5.55;;;;;;;11.83;40.73;98580.63;2166738;82;20961;-82
2022/04/19 14:33:43;;;;;;;5.53;4.55;;;;;;;11.94;39.12;98574.12;2166221;82;20973;-85
2022/04/19 14:36:44;;;;;;;5.50;4.70;;;;;;;11.88;39.45;98581.52;2165825;82;21324;-83
2022/04/19 14:39:44;;;;;;;5.78;4.92;;;;;;;11.88;38.35;98575.41;2166559;82;20984;-85
2022/04/19 14:42:45;;;;;;;7.05;6.05;;;;;;;11.57;38.81;98582.26;2166024;82;20977;-81
2022/04/19 14:45:45;;;;;;;31.62;6.58;;;;;;;11.53;39.57;98577.89;2166709;82;20929;-84
2022/04/19 14:48:45;;;;;;;7.10;6.05;;;;;;;11.35;40.09;98586.09;2165526;82;20929;-82
2022/04/19 14:55:06;;;;;;;7.42;4.85;;;;;;;11.30;39.71;98587.81;2176140;82;20976;-83
2022/04/19 14:58:07;;;;;;;5.28;4.28;;;;;;;11.51;39.53;98585.72;2176357;82;20960;-83
2022/04/19 15:01:08;;;;;;;6.60;5.50;;;;;;;11.65;39.53;98584.03;2175671;82;20956;-83
2022/04/19 15:04:08;;;;;;;6.75;5.20;;;;;;;11.71;39.29;98584.05;2175094;82;20963;-79
2022/04/19 15:07:08;;;;;;;6.35;5.35;;;;;;;11.88;39.34;98586.75;2175453;82;20940;-80
2022/04/19 15:10:08;;;;;;;6.65;5.85;;;;;;;11.69;38.90;98595.38;2176281;82;21001;-83
2022/04/19 15:13:09;;;;;;;6.50;5.73;;;;;;;11.45;38.60;98586.57;2175743;82;20933;-82